createdAt,value
2022-11-24T00:00:37.161Z,3.39
2022-11-24T00:03:43.744Z,3.11
2022-11-24T00:06:50.262Z,2.76
2022-11-24T00:09:56.861Z,2.87
2022-11-24T00:13:04.551Z,2.95
2022-11-24T00:16:13.162Z,3.15
2022-11-24T00:19:31.106Z,2.85
2022-11-24T00:22:37.495Z,1.97
2022-11-24T00:25:43.793Z,2.20
2022-11-24T00:28:52.901Z,1.62
2022-11-24T00:32:11.058Z,1.57
2022-11-24T00:35:17.328Z,2.65
2022-11-24T00:38:23.712Z,2.41
2022-11-24T00:41:31.038Z,2.88
2022-11-24T00:44:38.627Z,3.29
2022-11-24T00:47:44.974Z,2.67
2022-11-24T00:50:58.311Z,3.21
2022-11-24T00:54:04.665Z,3.23
2022-11-24T00:57:11.101Z,3.02
2022-11-24T01:00:19.901Z,2.92
2022-11-24T01:03:26.012Z,2.90
2022-11-24T01:06:32.804Z,3.10
2022-11-24T01:09:39.255Z,3.43
2022-11-24T01:12:45.381Z,3.02
2022-11-24T01:15:53.198Z,3.18
2022-11-24T01:18:59.557Z,3.15
2022-11-24T01:22:05.658Z,3.60
2022-11-24T01:25:13.064Z,3.65
2022-11-24T01:28:19.723Z,3.56
2022-11-24T01:31:28.128Z,3.42
2022-11-24T01:34:34.501Z,3.77
2022-11-24T01:37:41.003Z,3.89
2022-11-24T01:40:47.583Z,3.96
2022-11-24T01:43:55.307Z,4.00
2022-11-24T01:47:06.823Z,3.90
2022-11-24T01:50:17.757Z,3.97
2022-11-24T01:53:39.329Z,3.81
2022-11-24T01:56:50.054Z,4.25
2022-11-24T02:00:01.248Z,4.16
2022-11-24T02:03:10.365Z,4.41
2022-11-24T02:06:22.505Z,4.08
2022-11-24T02:09:33.728Z,3.79
2022-11-24T02:12:42.495Z,3.43
2022-11-24T02:15:48.724Z,3.54
2022-11-24T02:18:56.765Z,3.58
2022-11-24T02:22:04.323Z,3.90
2022-11-24T02:25:32.745Z,4.09
2022-11-24T02:28:41.357Z,3.93
2022-11-24T02:32:02.737Z,4.08
2022-11-24T02:35:10.829Z,4.18
2022-11-24T02:38:17.020Z,4.10
2022-11-24T02:41:26.794Z,3.73
2022-11-24T02:44:53.350Z,3.88
2022-11-24T02:48:00.057Z,3.92
2022-11-24T02:51:06.954Z,3.61
2022-11-24T02:54:13.451Z,4.02
2022-11-24T02:57:19.953Z,3.49
2022-11-24T03:00:27.754Z,3.86
2022-11-24T03:03:34.083Z,3.39
2022-11-24T03:06:40.710Z,3.61
2022-11-24T03:09:47.062Z,3.66
2022-11-24T03:12:53.304Z,3.93
2022-11-24T03:16:00.796Z,3.36
2022-11-24T03:19:07.010Z,2.91
2022-11-24T03:22:23.982Z,3.20
2022-11-24T03:25:30.188Z,3.22
2022-11-24T03:28:50.757Z,3.26
2022-11-24T03:31:59.600Z,3.47
2022-11-24T03:35:20.396Z,3.61
2022-11-24T03:38:26.614Z,3.62
2022-11-24T03:41:43.978Z,3.78
2022-11-24T03:44:50.455Z,4.05
2022-11-24T03:47:58.038Z,3.93
2022-11-24T03:51:04.808Z,4.03
2022-11-24T03:54:11.108Z,3.76
2022-11-24T03:57:17.343Z,3.44
2022-11-24T04:00:23.671Z,3.50
2022-11-24T04:03:31.519Z,3.65
2022-11-24T04:06:38.472Z,3.72
2022-11-24T04:09:45.150Z,3.88
2022-11-24T04:12:51.549Z,3.75
2022-11-24T04:15:57.789Z,3.76
2022-11-24T04:19:06.849Z,3.60
2022-11-24T04:22:13.156Z,3.58
2022-11-24T04:25:19.602Z,3.55
2022-11-24T04:28:26.218Z,3.98
2022-11-24T04:31:32.473Z,3.49
2022-11-24T04:34:40.538Z,3.84
2022-11-24T04:37:47.328Z,3.83
2022-11-24T04:40:53.815Z,3.42
2022-11-24T04:44:00.042Z,3.71
2022-11-24T04:47:06.810Z,4.02
2022-11-24T04:50:14.633Z,4.00
2022-11-24T04:53:20.947Z,3.95
2022-11-24T04:56:27.197Z,3.93
2022-11-24T04:59:33.402Z,4.25
2022-11-24T05:02:40.229Z,3.90
2022-11-24T05:06:01.889Z,4.01
2022-11-24T05:09:10.368Z,4.20
2022-11-24T05:12:16.589Z,4.23
2022-11-24T05:15:22.941Z,3.94
2022-11-24T05:18:29.629Z,4.02
2022-11-24T05:21:37.963Z,4.17
2022-11-24T05:24:44.536Z,4.05
2022-11-24T05:27:51.049Z,4.09
2022-11-24T05:31:00.670Z,4.37
2022-11-24T05:34:07.035Z,4.30
2022-11-24T05:37:14.936Z,4.24
2022-11-24T05:40:21.397Z,4.17
2022-11-24T05:43:28.177Z,4.29
2022-11-24T05:46:34.463Z,4.32
2022-11-24T05:49:41.101Z,4.38
2022-11-24T05:52:49.015Z,4.02
2022-11-24T05:55:55.450Z,4.33
2022-11-24T05:59:06.662Z,3.87
2022-11-24T06:02:16.273Z,3.97
2022-11-24T06:05:23.278Z,3.95
2022-11-24T06:08:31.587Z,4.01
2022-11-24T06:11:37.774Z,4.54
2022-11-24T06:14:44.249Z,4.22
2022-11-24T06:17:56.094Z,3.87
2022-11-24T06:21:17.271Z,3.76
2022-11-24T06:24:24.769Z,3.81
2022-11-24T06:27:31.381Z,4.04
2022-11-24T06:30:38.182Z,3.85
2022-11-24T06:33:44.390Z,3.61
2022-11-24T06:36:50.669Z,3.87
2022-11-24T06:39:58.729Z,4.05
2022-11-24T06:43:16.795Z,4.15
2022-11-24T06:46:22.984Z,4.55
2022-11-24T06:49:29.453Z,4.59
2022-11-24T06:52:35.465Z,4.06
2022-11-24T06:55:43.686Z,3.93
2022-11-24T06:59:05.407Z,3.34
2022-11-24T07:02:12.103Z,4.30
2022-11-24T07:05:32.290Z,4.62
2022-11-24T07:08:38.921Z,4.76
2022-11-24T07:11:46.470Z,4.30
2022-11-24T07:14:53.045Z,4.09
2022-11-24T07:17:59.529Z,4.04
2022-11-24T07:21:05.996Z,4.26
2022-11-24T07:24:12.596Z,4.57
2022-11-24T07:27:20.676Z,3.97
2022-11-24T07:30:27.541Z,4.33
2022-11-24T07:33:33.993Z,4.71
2022-11-24T07:36:40.557Z,4.86
2022-11-24T07:39:47.088Z,4.64
2022-11-24T07:42:55.348Z,4.38
2022-11-24T07:46:01.918Z,4.06
2022-11-24T07:49:07.964Z,4.34
2022-11-24T07:52:14.308Z,4.16
2022-11-24T07:55:20.279Z,3.84
2022-11-24T07:58:32.409Z,3.72
2022-11-24T08:01:39.420Z,4.19
2022-11-24T08:04:45.689Z,4.00
2022-11-24T08:07:52.111Z,3.92
2022-11-24T08:10:58.615Z,4.56
2022-11-24T08:14:06.727Z,4.36
2022-11-24T08:17:13.140Z,5.04
2022-11-24T08:20:19.987Z,5.59
2022-11-24T08:23:26.458Z,5.39
2022-11-24T08:26:32.711Z,5.54
2022-11-24T08:29:40.702Z,5.62
2022-11-24T08:32:46.982Z,4.93
2022-11-24T08:35:53.390Z,5.16
2022-11-24T08:39:01.561Z,4.50
2022-11-24T08:42:07.739Z,4.52
2022-11-24T08:45:20.766Z,4.53
2022-11-24T08:48:27.689Z,5.84
2022-11-24T08:51:34.195Z,5.92
2022-11-24T08:54:40.969Z,5.87
2022-11-24T08:57:47.106Z,6.25
2022-11-24T09:00:54.808Z,6.10
2022-11-24T09:04:01.289Z,6.39
2022-11-24T09:07:07.736Z,6.62
2022-11-24T09:10:15.013Z,6.46
2022-11-24T09:13:21.384Z,6.26
2022-11-24T09:16:44.269Z,6.82
2022-11-24T09:19:50.681Z,7.15
2022-11-24T09:22:57.964Z,7.10
2022-11-24T09:26:06.254Z,7.18
2022-11-24T09:29:12.709Z,6.74
2022-11-24T09:32:20.669Z,6.75
2022-11-24T09:35:27.274Z,6.83
2022-11-24T09:38:34.273Z,7.27
2022-11-24T09:41:51.188Z,7.43
2022-11-24T09:45:41.725Z,6.36
2022-11-24T09:48:53.356Z,7.40
2022-11-24T09:52:03.609Z,7.56
2022-11-24T09:55:25.079Z,7.61
2022-11-24T09:58:48.406Z,7.99
2022-11-24T10:01:55.970Z,8.20
2022-11-24T10:05:03.950Z,8.65
2022-11-24T10:08:25.433Z,8.91
2022-11-24T10:11:39.862Z,9.36
2022-11-24T10:15:04.808Z,9.16
2022-11-24T10:18:31.608Z,8.85
2022-11-24T10:21:51.319Z,8.78
2022-11-24T10:25:09.209Z,9.14
2022-11-24T10:28:16.875Z,8.86
2022-11-24T10:31:29.678Z,8.54
2022-11-24T10:34:39.221Z,8.26
2022-11-24T10:38:09.932Z,8.32
2022-11-24T10:41:21.503Z,8.55
2022-11-24T10:44:27.717Z,8.30
2022-11-24T10:47:47.798Z,8.40
2022-11-24T10:50:55.630Z,8.43
2022-11-24T10:54:09.345Z,8.48
2022-11-24T10:57:29.025Z,8.42
2022-11-24T11:00:36.471Z,8.53
2022-11-24T11:03:48.916Z,8.57
2022-11-24T11:07:09.906Z,8.65
2022-11-24T11:10:23.694Z,8.46
2022-11-24T11:13:32.440Z,8.74
2022-11-24T11:16:39.922Z,8.91
2022-11-24T11:19:49.458Z,9.03
2022-11-24T11:22:57.912Z,9.18
2022-11-24T11:26:33.065Z,9.51
2022-11-24T11:36:34.029Z,10.30
2022-11-24T11:39:48.637Z,10.63
2022-11-24T11:43:03.952Z,10.40
2022-11-24T11:46:15.705Z,10.27
2022-11-24T11:49:22.481Z,10.29
2022-11-24T11:52:49.055Z,10.21
2022-11-24T11:56:07.666Z,10.31
2022-11-24T11:59:41.056Z,10.33
2022-11-24T12:03:11.426Z,10.27
2022-11-24T12:06:32.461Z,10.15
2022-11-24T12:09:52.922Z,10.12
2022-11-24T12:13:12.367Z,10.15
2022-11-24T12:16:35.783Z,10.12
2022-11-24T12:19:57.061Z,10.82
2022-11-24T12:23:11.568Z,10.70
2022-11-24T12:26:26.318Z,10.64
2022-11-24T12:29:58.339Z,10.33
2022-11-24T12:33:31.009Z,10.62
2022-11-24T12:37:01.198Z,11.49
2022-11-24T12:40:15.880Z,11.62
2022-11-24T12:43:30.210Z,10.91
2022-11-24T12:46:58.243Z,11.67
2022-11-24T12:50:11.788Z,11.12
2022-11-24T12:53:38.401Z,10.53
2022-11-24T12:56:51.107Z,10.52
2022-11-24T13:00:03.564Z,10.29
2022-11-24T13:03:32.046Z,10.48
2022-11-24T13:06:53.046Z,10.46
2022-11-24T13:10:54.822Z,10.38
2022-11-24T13:14:00.754Z,10.14
2022-11-24T13:17:33.718Z,10.07
2022-11-24T13:20:45.777Z,10.17
2022-11-24T13:23:58.976Z,10.09
2022-11-24T13:27:42.841Z,10.31
2022-11-24T13:31:11.816Z,10.62
2022-11-24T13:34:50.000Z,10.13
2022-11-24T13:37:56.338Z,9.70
2022-11-24T13:41:27.596Z,9.53
2022-11-24T13:44:54.164Z,9.26
2022-11-24T13:48:00.409Z,8.99
2022-11-24T13:51:19.592Z,8.95
2022-11-24T13:54:28.643Z,8.72
2022-11-24T13:57:39.497Z,8.81
2022-11-24T14:01:20.299Z,8.83
2022-11-24T14:04:41.676Z,8.68
2022-11-24T14:07:49.969Z,8.53
2022-11-24T14:10:58.770Z,8.53
2022-11-24T14:14:21.594Z,8.65
2022-11-24T14:17:29.385Z,8.56
2022-11-24T14:20:35.820Z,8.42
2022-11-24T14:23:43.296Z,8.46
2022-11-24T14:26:49.550Z,8.49
2022-11-24T14:29:59.417Z,8.20
2022-11-24T14:33:06.005Z,8.20
2022-11-24T14:36:16.136Z,8.14
2022-11-24T14:39:24.521Z,8.03
2022-11-24T14:42:43.421Z,8.14
2022-11-24T14:45:53.055Z,7.93
2022-11-24T14:49:00.196Z,7.95
2022-11-24T14:52:13.971Z,7.76
2022-11-24T14:55:29.225Z,7.86
2022-11-24T14:58:41.849Z,7.73
2022-11-24T15:01:50.131Z,7.69
2022-11-24T15:05:03.717Z,7.52
2022-11-24T15:08:15.737Z,7.39
2022-11-24T15:11:22.195Z,7.41
2022-11-24T15:14:37.805Z,7.44
2022-11-24T15:17:50.698Z,7.33
2022-11-24T15:20:57.256Z,7.22
2022-11-24T15:24:16.232Z,7.40
2022-11-24T15:27:22.879Z,7.28
2022-11-24T15:30:30.611Z,7.25
2022-11-24T15:33:38.359Z,7.25
2022-11-24T15:36:44.584Z,7.21
2022-11-24T15:39:50.737Z,7.07
2022-11-24T15:43:11.821Z,7.27
2022-11-24T15:46:18.261Z,7.25
2022-11-24T15:49:40.153Z,7.47
2022-11-24T15:52:47.273Z,7.42
2022-11-24T15:55:54.051Z,7.42
2022-11-24T15:59:00.900Z,7.26
2022-11-24T16:02:07.420Z,7.28
2022-11-24T16:05:17.931Z,7.37
2022-11-24T16:08:24.697Z,7.49
2022-11-24T16:11:31.154Z,7.41
2022-11-24T16:14:38.225Z,7.28
2022-11-24T16:17:44.575Z,7.16
2022-11-24T16:20:52.520Z,7.27
2022-11-24T16:23:58.677Z,7.12
2022-11-24T16:27:05.164Z,7.14
2022-11-24T16:30:13.903Z,7.03
2022-11-24T16:33:19.908Z,7.01
2022-11-24T16:36:28.480Z,7.04
2022-11-24T16:39:34.781Z,6.95
2022-11-24T16:42:40.860Z,6.94
2022-11-24T16:45:47.785Z,7.11
2022-11-24T16:48:55.744Z,6.95
2022-11-24T16:52:03.255Z,7.06
2022-11-24T16:55:11.786Z,7.02
2022-11-24T16:58:17.850Z,7.08
2022-11-24T17:01:26.035Z,6.99
2022-11-24T17:04:32.748Z,6.90
2022-11-24T17:07:40.607Z,6.89
2022-11-24T17:10:46.868Z,6.70
2022-11-24T17:13:53.986Z,6.72
2022-11-24T17:17:00.258Z,6.60
2022-11-24T17:20:08.046Z,6.46
2022-11-24T17:23:16.412Z,6.34
2022-11-24T17:26:22.965Z,6.33
2022-11-24T17:29:30.149Z,6.32
2022-11-24T17:32:55.203Z,6.29
2022-11-24T17:36:03.981Z,6.15
2022-11-24T17:39:12.365Z,6.19
2022-11-24T17:42:18.753Z,6.29
2022-11-24T17:45:25.427Z,6.16
2022-11-24T17:48:32.901Z,6.31
2022-11-24T17:51:39.118Z,6.09
2022-11-24T17:54:47.045Z,6.03
2022-11-24T17:57:53.666Z,6.11
2022-11-24T18:01:00.320Z,6.17
2022-11-24T18:04:06.674Z,6.25
2022-11-24T18:07:13.274Z,6.08
2022-11-24T18:10:21.904Z,6.21
2022-11-24T18:13:55.737Z,6.28
2022-11-24T18:17:02.273Z,6.27
2022-11-24T18:20:17.656Z,6.25
2022-11-24T18:23:25.451Z,6.20
2022-11-24T18:26:42.137Z,6.20
2022-11-24T18:30:20.753Z,6.25
2022-11-24T18:33:30.380Z,6.22
2022-11-24T18:36:56.431Z,6.16
2022-11-24T18:40:02.881Z,6.06
2022-11-24T18:43:32.908Z,6.03
2022-11-24T18:46:54.664Z,6.17
2022-11-24T18:50:14.527Z,6.04
2022-11-24T18:53:39.034Z,6.02
2022-11-24T18:57:08.925Z,5.82
2022-11-24T19:00:36.184Z,5.97
2022-11-24T19:04:34.712Z,5.93
2022-11-24T19:07:53.348Z,5.89
2022-11-24T19:11:11.083Z,5.88
2022-11-24T19:14:26.327Z,5.93
2022-11-24T19:17:55.389Z,5.67
2022-11-24T19:21:28.767Z,5.89
2022-11-24T19:24:50.100Z,5.83
2022-11-24T19:28:03.636Z,5.69
2022-11-24T19:31:30.712Z,5.78
2022-11-24T19:34:48.171Z,5.77
2022-11-24T19:38:13.576Z,5.56
2022-11-24T19:41:52.755Z,5.67
2022-11-24T19:45:01.025Z,5.52
2022-11-24T19:48:21.312Z,5.53
2022-11-24T19:52:05.560Z,5.45
2022-11-24T19:55:16.794Z,5.54
2022-11-24T19:58:45.966Z,5.48
2022-11-24T20:01:52.842Z,5.46
2022-11-24T20:05:01.584Z,5.54
2022-11-24T20:08:09.287Z,5.54
2022-11-24T20:11:18.251Z,5.47
2022-11-24T20:14:24.654Z,5.41
2022-11-24T20:17:32.784Z,5.50
2022-11-24T20:20:39.230Z,5.59
2022-11-24T20:23:55.063Z,5.42
2022-11-24T20:27:02.195Z,5.48
2022-11-24T20:30:09.991Z,5.41
2022-11-24T20:33:16.552Z,5.52
2022-11-24T20:36:26.226Z,5.37
2022-11-24T20:39:33.733Z,5.40
2022-11-24T20:42:40.368Z,5.40
2022-11-24T20:45:57.888Z,5.35
2022-11-24T20:49:05.447Z,5.28
2022-11-24T20:52:12.064Z,5.34
2022-11-24T20:55:19.824Z,5.27
2022-11-24T20:58:25.929Z,5.31
2022-11-24T21:01:35.212Z,5.31
2022-11-24T21:04:41.392Z,5.37
2022-11-24T21:07:48.188Z,5.37
2022-11-24T21:10:57.091Z,5.27
2022-11-24T21:14:04.102Z,5.36
2022-11-24T21:17:10.660Z,5.31
2022-11-24T21:20:17.244Z,5.28
2022-11-24T21:23:23.426Z,5.35
2022-11-24T21:26:31.663Z,5.30
2022-11-24T21:29:37.882Z,5.31
2022-11-24T21:32:44.127Z,5.21
2022-11-24T21:35:50.627Z,5.06
2022-11-24T21:38:58.467Z,5.06
2022-11-24T21:42:07.037Z,5.15
2022-11-24T21:45:13.531Z,5.10
2022-11-24T21:48:19.558Z,5.15
2022-11-24T21:51:25.662Z,5.18
2022-11-24T21:54:34.528Z,5.16
2022-11-24T21:57:42.726Z,5.09
2022-11-24T22:01:03.023Z,5.09
2022-11-24T22:04:09.161Z,5.12
2022-11-24T22:07:15.369Z,5.10
2022-11-24T22:10:22.001Z,5.11
2022-11-24T22:13:29.937Z,5.08
2022-11-24T22:16:36.224Z,5.07
2022-11-24T22:19:42.884Z,5.18
2022-11-24T22:22:49.415Z,5.05
2022-11-24T22:25:55.648Z,5.13
2022-11-24T22:29:03.843Z,5.20
2022-11-24T22:32:10.207Z,5.12
2022-11-24T22:35:16.361Z,5.06
2022-11-24T22:38:22.441Z,5.20
2022-11-24T22:41:28.523Z,5.08
2022-11-24T22:44:36.779Z,5.23
2022-11-24T22:47:43.556Z,5.19
2022-11-24T22:50:49.817Z,5.07
2022-11-24T22:53:57.983Z,5.16
2022-11-24T22:57:04.297Z,5.04
2022-11-24T23:00:13.351Z,4.98
2022-11-24T23:03:19.646Z,5.07
2022-11-24T23:06:27.725Z,5.11
2022-11-24T23:09:34.235Z,5.04
2022-11-24T23:12:40.945Z,5.09
2022-11-24T23:15:49.047Z,5.09
2022-11-24T23:18:55.498Z,5.08
2022-11-24T23:22:02.268Z,5.10
2022-11-24T23:25:09.701Z,5.27
2022-11-24T23:28:16.125Z,5.15
2022-11-24T23:31:28.443Z,5.05
2022-11-24T23:34:34.906Z,5.10
2022-11-24T23:38:05.898Z,5.03
2022-11-24T23:41:25.231Z,4.96
2022-11-24T23:44:31.308Z,5.05
2022-11-24T23:47:38.963Z,5.01
2022-11-24T23:50:45.046Z,4.96
2022-11-24T23:53:52.127Z,4.97
2022-11-24T23:56:58.823Z,4.97
